sensor_id;sensor_type;location;lat;lon;timestamp;P1;durP1;ratioP1;P2;durP2;ratioP2
64959;SDS011;51487;52.266;10.542;2022-09-21T00:01:09;7.50;;;4.55;;
64959;SDS011;51487;52.266;10.542;2022-09-21T00:03:54;7.72;;;4.22;;
64959;SDS011;51487;52.266;10.542;2022-09-21T00:06:26;8.70;;;4.95;;
64959;SDS011;51487;52.266;10.542;2022-09-21T00:08:55;8.70;;;4.60;;
64959;SDS011;51487;52.266;10.542;2022-09-21T00:11:25;6.22;;;4.55;;
64959;SDS011;51487;52.266;10.542;2022-09-21T00:13:54;7.07;;;4.43;;
64959;SDS011;51487;52.266;10.542;2022-09-21T00:16:28;8.65;;;4.53;;
64959;SDS011;51487;52.266;10.542;2022-09-21T00:18:54;6.45;;;4.25;;
64959;SDS011;51487;52.266;10.542;2022-09-21T00:21:19;6.93;;;4.55;;
64959;SDS011;51487;52.266;10.542;2022-09-21T00:23:45;6.28;;;4.60;;
64959;SDS011;51487;52.266;10.542;2022-09-21T00:26:13;7.60;;;5.05;;
64959;SDS011;51487;52.266;10.542;2022-09-21T00:28:45;6.43;;;4.35;;
64959;SDS011;51487;52.266;10.542;2022-09-21T00:31:12;7.80;;;4.78;;
64959;SDS011;51487;52.266;10.542;2022-09-21T00:33:41;6.32;;;4.60;;
64959;SDS011;51487;52.266;10.542;2022-09-21T00:36:08;6.65;;;5.22;;
64959;SDS011;51487;52.266;10.542;2022-09-21T00:38:37;8.25;;;4.70;;
64959;SDS011;51487;52.266;10.542;2022-09-21T00:41:04;8.32;;;4.30;;
64959;SDS011;51487;52.266;10.542;2022-09-21T00:43:32;6.25;;;5.35;;
64959;SDS011;51487;52.266;10.542;2022-09-21T00:46:40;7.15;;;4.40;;
64959;SDS011;51487;52.266;10.542;2022-09-21T00:49:01;8.07;;;4.57;;
64959;SDS011;51487;52.266;10.542;2022-09-21T00:51:27;8.02;;;4.88;;
64959;SDS011;51487;52.266;10.542;2022-09-21T00:53:55;5.50;;;4.75;;
64959;SDS011;51487;52.266;10.542;2022-09-21T00:56:28;7.38;;;4.68;;
64959;SDS011;51487;52.266;10.542;2022-09-21T00:58:54;7.72;;;4.63;;
64959;SDS011;51487;52.266;10.542;2022-09-21T01:01:21;8.13;;;4.90;;
64959;SDS011;51487;52.266;10.542;2022-09-21T01:03:48;9.07;;;5.00;;
64959;SDS011;51487;52.266;10.542;2022-09-21T01:06:16;6.18;;;4.10;;
64959;SDS011;51487;52.266;10.542;2022-09-21T01:08:45;7.82;;;4.25;;
64959;SDS011;51487;52.266;10.542;2022-09-21T01:11:27;7.03;;;4.65;;
64959;SDS011;51487;52.266;10.542;2022-09-21T01:23:25;7.47;;;4.70;;
64959;SDS011;51487;52.266;10.542;2022-09-21T01:31:46;7.25;;;5.35;;
64959;SDS011;51487;52.266;10.542;2022-09-21T01:37:05;8.48;;;4.60;;
64959;SDS011;51487;52.266;10.542;2022-09-21T01:39:39;7.13;;;3.97;;
64959;SDS011;51487;52.266;10.542;2022-09-21T01:42:10;7.13;;;4.55;;
64959;SDS011;51487;52.266;10.542;2022-09-21T01:44:39;7.32;;;4.38;;
64959;SDS011;51487;52.266;10.542;2022-09-21T01:47:10;7.15;;;4.97;;
64959;SDS011;51487;52.266;10.542;2022-09-21T01:49:38;6.78;;;4.93;;
64959;SDS011;51487;52.266;10.542;2022-09-21T01:52:17;8.32;;;5.30;;
64959;SDS011;51487;52.266;10.542;2022-09-21T01:54:53;5.70;;;4.50;;
64959;SDS011;51487;52.266;10.542;2022-09-21T01:57:37;7.43;;;4.88;;
64959;SDS011;51487;52.266;10.542;2022-09-21T02:00:14;7.15;;;5.18;;
64959;SDS011;51487;52.266;10.542;2022-09-21T02:05:22;8.70;;;5.30;;
64959;SDS011;51487;52.266;10.542;2022-09-21T02:07:52;12.23;;;5.40;;
64959;SDS011;51487;52.266;10.542;2022-09-21T02:10:21;8.52;;;5.15;;
64959;SDS011;51487;52.266;10.542;2022-09-21T02:12:54;6.85;;;4.78;;
64959;SDS011;51487;52.266;10.542;2022-09-21T02:15:25;6.20;;;5.00;;
64959;SDS011;51487;52.266;10.542;2022-09-21T02:21:43;6.22;;;4.78;;
64959;SDS011;51487;52.266;10.542;2022-09-21T02:24:44;10.05;;;5.30;;
64959;SDS011;51487;52.266;10.542;2022-09-21T02:27:35;6.63;;;4.70;;
64959;SDS011;51487;52.266;10.542;2022-09-21T02:30:15;8.00;;;5.43;;
64959;SDS011;51487;52.266;10.542;2022-09-21T02:35:47;7.97;;;5.30;;
64959;SDS011;51487;52.266;10.542;2022-09-21T02:41:35;7.38;;;4.82;;
64959;SDS011;51487;52.266;10.542;2022-09-21T02:46:57;7.10;;;4.95;;
64959;SDS011;51487;52.266;10.542;2022-09-21T02:49:35;8.00;;;5.22;;
64959;SDS011;51487;52.266;10.542;2022-09-21T02:52:10;9.20;;;4.97;;
64959;SDS011;51487;52.266;10.542;2022-09-21T02:54:42;8.02;;;5.47;;
64959;SDS011;51487;52.266;10.542;2022-09-21T02:57:13;8.35;;;5.20;;
64959;SDS011;51487;52.266;10.542;2022-09-21T02:59:43;7.13;;;5.60;;
64959;SDS011;51487;52.266;10.542;2022-09-21T03:02:10;7.78;;;5.45;;
64959;SDS011;51487;52.266;10.542;2022-09-21T03:04:37;9.77;;;5.13;;
64959;SDS011;51487;52.266;10.542;2022-09-21T03:07:05;9.80;;;5.38;;
64959;SDS011;51487;52.266;10.542;2022-09-21T03:09:32;6.53;;;5.45;;
64959;SDS011;51487;52.266;10.542;2022-09-21T03:11:57;8.15;;;4.90;;
64959;SDS011;51487;52.266;10.542;2022-09-21T03:14:23;8.40;;;5.50;;
64959;SDS011;51487;52.266;10.542;2022-09-21T03:16:48;7.82;;;5.55;;
64959;SDS011;51487;52.266;10.542;2022-09-21T03:19:14;8.75;;;4.78;;
64959;SDS011;51487;52.266;10.542;2022-09-21T03:21:40;11.07;;;5.70;;
64959;SDS011;51487;52.266;10.542;2022-09-21T03:24:06;8.45;;;4.95;;
64959;SDS011;51487;52.266;10.542;2022-09-21T03:26:32;9.27;;;5.53;;
64959;SDS011;51487;52.266;10.542;2022-09-21T03:28:58;7.20;;;5.47;;
64959;SDS011;51487;52.266;10.542;2022-09-21T03:31:23;8.48;;;5.63;;
64959;SDS011;51487;52.266;10.542;2022-09-21T03:33:49;11.82;;;5.90;;
64959;SDS011;51487;52.266;10.542;2022-09-21T03:36:14;8.82;;;5.60;;
64959;SDS011;51487;52.266;10.542;2022-09-21T03:38:40;10.73;;;6.25;;
64959;SDS011;51487;52.266;10.542;2022-09-21T03:41:06;8.23;;;5.53;;
64959;SDS011;51487;52.266;10.542;2022-09-21T03:43:32;8.50;;;5.70;;
64959;SDS011;51487;52.266;10.542;2022-09-21T03:45:58;8.93;;;5.40;;
64959;SDS011;51487;52.266;10.542;2022-09-21T03:48:24;10.45;;;5.65;;
64959;SDS011;51487;52.266;10.542;2022-09-21T03:50:49;8.02;;;5.65;;
64959;SDS011;51487;52.266;10.542;2022-09-21T03:53:15;11.20;;;5.78;;
64959;SDS011;51487;52.266;10.542;2022-09-21T03:55:41;8.93;;;6.13;;
64959;SDS011;51487;52.266;10.542;2022-09-21T03:58:07;8.77;;;5.47;;
64959;SDS011;51487;52.266;10.542;2022-09-21T04:00:34;12.45;;;5.72;;
64959;SDS011;51487;52.266;10.542;2022-09-21T04:03:00;9.73;;;6.07;;
64959;SDS011;51487;52.266;10.542;2022-09-21T04:05:26;7.72;;;5.78;;
64959;SDS011;51487;52.266;10.542;2022-09-21T04:07:52;9.82;;;5.90;;
64959;SDS011;51487;52.266;10.542;2022-09-21T04:10:20;9.43;;;5.45;;
64959;SDS011;51487;52.266;10.542;2022-09-21T04:12:51;11.73;;;6.00;;
64959;SDS011;51487;52.266;10.542;2022-09-21T04:15:21;11.32;;;5.40;;
64959;SDS011;51487;52.266;10.542;2022-09-21T04:17:50;7.85;;;5.50;;
64959;SDS011;51487;52.266;10.542;2022-09-21T04:20:17;9.48;;;5.68;;
64959;SDS011;51487;52.266;10.542;2022-09-21T04:22:43;8.55;;;5.28;;
64959;SDS011;51487;52.266;10.542;2022-09-21T04:25:10;8.25;;;5.10;;
64959;SDS011;51487;52.266;10.542;2022-09-21T04:27:36;5.70;;;4.60;;
64959;SDS011;51487;52.266;10.542;2022-09-21T04:30:02;6.95;;;4.40;;
64959;SDS011;51487;52.266;10.542;2022-09-21T04:32:29;11.20;;;5.05;;
64959;SDS011;51487;52.266;10.542;2022-09-21T04:34:55;7.88;;;4.82;;
64959;SDS011;51487;52.266;10.542;2022-09-21T04:37:20;9.27;;;4.97;;
64959;SDS011;51487;52.266;10.542;2022-09-21T04:39:46;10.02;;;5.20;;
64959;SDS011;51487;52.266;10.542;2022-09-21T04:42:12;9.35;;;4.60;;
64959;SDS011;51487;52.266;10.542;2022-09-21T04:44:37;7.28;;;4.80;;
64959;SDS011;51487;52.266;10.542;2022-09-21T04:47:03;8.95;;;4.00;;
64959;SDS011;51487;52.266;10.542;2022-09-21T04:49:28;9.27;;;5.15;;
64959;SDS011;51487;52.266;10.542;2022-09-21T04:51:54;7.03;;;4.60;;
64959;SDS011;51487;52.266;10.542;2022-09-21T04:54:19;9.38;;;4.72;;
64959;SDS011;51487;52.266;10.542;2022-09-21T04:56:45;9.07;;;4.38;;
64959;SDS011;51487;52.266;10.542;2022-09-21T04:59:10;7.88;;;4.70;;
64959;SDS011;51487;52.266;10.542;2022-09-21T05:01:36;8.27;;;4.18;;
64959;SDS011;51487;52.266;10.542;2022-09-21T05:04:01;7.25;;;4.55;;
64959;SDS011;51487;52.266;10.542;2022-09-21T05:06:27;7.53;;;4.53;;
64959;SDS011;51487;52.266;10.542;2022-09-21T05:08:54;7.80;;;4.18;;
64959;SDS011;51487;52.266;10.542;2022-09-21T05:11:39;12.07;;;4.70;;
64959;SDS011;51487;52.266;10.542;2022-09-21T05:14:05;8.82;;;5.13;;
64959;SDS011;51487;52.266;10.542;2022-09-21T05:16:31;8.15;;;4.90;;
64959;SDS011;51487;52.266;10.542;2022-09-21T05:18:57;10.63;;;5.18;;
64959;SDS011;51487;52.266;10.542;2022-09-21T05:21:23;9.48;;;5.03;;
64959;SDS011;51487;52.266;10.542;2022-09-21T05:23:49;7.47;;;5.25;;
64959;SDS011;51487;52.266;10.542;2022-09-21T05:26:14;11.00;;;5.97;;
64959;SDS011;51487;52.266;10.542;2022-09-21T05:28:40;8.32;;;5.50;;
64959;SDS011;51487;52.266;10.542;2022-09-21T05:39:41;9.63;;;5.43;;
64959;SDS011;51487;52.266;10.542;2022-09-21T05:42:08;8.73;;;5.15;;
64959;SDS011;51487;52.266;10.542;2022-09-21T05:44:35;8.40;;;5.47;;
64959;SDS011;51487;52.266;10.542;2022-09-21T05:47:03;9.23;;;5.70;;
64959;SDS011;51487;52.266;10.542;2022-09-21T05:52:42;10.32;;;6.10;;
64959;SDS011;51487;52.266;10.542;2022-09-21T06:03:55;7.97;;;5.10;;
64959;SDS011;51487;52.266;10.542;2022-09-21T06:06:23;6.68;;;5.05;;
64959;SDS011;51487;52.266;10.542;2022-09-21T06:08:48;6.07;;;5.15;;
64959;SDS011;51487;52.266;10.542;2022-09-21T06:11:14;10.48;;;5.57;;
64959;SDS011;51487;52.266;10.542;2022-09-21T06:13:40;8.10;;;5.30;;
64959;SDS011;51487;52.266;10.542;2022-09-21T06:16:05;7.40;;;4.93;;
64959;SDS011;51487;52.266;10.542;2022-09-21T06:18:35;12.57;;;8.27;;
64959;SDS011;51487;52.266;10.542;2022-09-21T06:21:04;9.68;;;6.65;;
64959;SDS011;51487;52.266;10.542;2022-09-21T06:23:32;10.52;;;5.85;;
64959;SDS011;51487;52.266;10.542;2022-09-21T06:25:57;10.40;;;5.32;;
64959;SDS011;51487;52.266;10.542;2022-09-21T06:28:23;11.55;;;6.00;;
64959;SDS011;51487;52.266;10.542;2022-09-21T06:30:49;10.30;;;6.32;;
64959;SDS011;51487;52.266;10.542;2022-09-21T06:33:17;8.77;;;6.43;;
64959;SDS011;51487;52.266;10.542;2022-09-21T06:35:50;13.25;;;7.00;;
64959;SDS011;51487;52.266;10.542;2022-09-21T06:38:21;10.90;;;6.50;;
64959;SDS011;51487;52.266;10.542;2022-09-21T06:40:48;13.57;;;7.38;;
64959;SDS011;51487;52.266;10.542;2022-09-21T06:43:15;12.30;;;6.85;;
64959;SDS011;51487;52.266;10.542;2022-09-21T06:45:41;11.00;;;6.82;;
64959;SDS011;51487;52.266;10.542;2022-09-21T06:48:07;12.15;;;6.97;;
64959;SDS011;51487;52.266;10.542;2022-09-21T06:50:33;11.13;;;7.25;;
64959;SDS011;51487;52.266;10.542;2022-09-21T06:52:59;11.60;;;6.95;;
64959;SDS011;51487;52.266;10.542;2022-09-21T06:55:27;12.98;;;8.43;;
64959;SDS011;51487;52.266;10.542;2022-09-21T06:57:58;17.90;;;7.70;;
64959;SDS011;51487;52.266;10.542;2022-09-21T07:00:25;10.38;;;7.40;;
64959;SDS011;51487;52.266;10.542;2022-09-21T07:02:51;12.68;;;7.70;;
64959;SDS011;51487;52.266;10.542;2022-09-21T07:05:17;9.98;;;7.25;;
64959;SDS011;51487;52.266;10.542;2022-09-21T07:07:42;13.00;;;7.13;;
64959;SDS011;51487;52.266;10.542;2022-09-21T07:10:08;15.63;;;7.38;;
64959;SDS011;51487;52.266;10.542;2022-09-21T07:12:34;12.75;;;8.30;;
64959;SDS011;51487;52.266;10.542;2022-09-21T07:15:03;13.90;;;7.47;;
64959;SDS011;51487;52.266;10.542;2022-09-21T07:17:31;13.77;;;7.22;;
64959;SDS011;51487;52.266;10.542;2022-09-21T07:19:58;9.10;;;7.18;;
64959;SDS011;51487;52.266;10.542;2022-09-21T07:22:27;13.15;;;7.80;;
64959;SDS011;51487;52.266;10.542;2022-09-21T07:24:53;12.70;;;7.32;;
64959;SDS011;51487;52.266;10.542;2022-09-21T07:27:19;12.18;;;7.55;;
64959;SDS011;51487;52.266;10.542;2022-09-21T07:29:44;10.95;;;6.72;;
64959;SDS011;51487;52.266;10.542;2022-09-21T07:32:11;12.32;;;7.40;;
64959;SDS011;51487;52.266;10.542;2022-09-21T07:34:37;17.08;;;7.57;;
64959;SDS011;51487;52.266;10.542;2022-09-21T07:37:03;12.20;;;7.00;;
64959;SDS011;51487;52.266;10.542;2022-09-21T07:39:29;13.30;;;6.78;;
64959;SDS011;51487;52.266;10.542;2022-09-21T07:41:55;11.77;;;7.55;;
64959;SDS011;51487;52.266;10.542;2022-09-21T07:44:24;8.52;;;6.28;;
64959;SDS011;51487;52.266;10.542;2022-09-21T07:46:49;9.85;;;6.72;;
64959;SDS011;51487;52.266;10.542;2022-09-21T07:49:15;15.45;;;6.45;;
64959;SDS011;51487;52.266;10.542;2022-09-21T07:51:41;12.25;;;6.45;;
64959;SDS011;51487;52.266;10.542;2022-09-21T07:54:09;12.77;;;6.72;;
64959;SDS011;51487;52.266;10.542;2022-09-21T07:56:36;13.55;;;6.82;;
64959;SDS011;51487;52.266;10.542;2022-09-21T07:59:03;13.30;;;7.95;;
64959;SDS011;51487;52.266;10.542;2022-09-21T08:01:38;9.00;;;6.65;;
64959;SDS011;51487;52.266;10.542;2022-09-21T08:04:06;10.88;;;6.20;;
64959;SDS011;51487;52.266;10.542;2022-09-21T08:06:35;14.65;;;6.65;;
64959;SDS011;51487;52.266;10.542;2022-09-21T08:09:04;9.93;;;6.25;;
64959;SDS011;51487;52.266;10.542;2022-09-21T08:11:30;11.95;;;7.00;;
64959;SDS011;51487;52.266;10.542;2022-09-21T08:13:58;13.93;;;7.45;;
64959;SDS011;51487;52.266;10.542;2022-09-21T08:16:26;13.02;;;7.28;;
64959;SDS011;51487;52.266;10.542;2022-09-21T08:18:55;12.13;;;6.68;;
64959;SDS011;51487;52.266;10.542;2022-09-21T08:21:21;15.48;;;5.90;;
64959;SDS011;51487;52.266;10.542;2022-09-21T08:23:47;11.27;;;5.97;;
64959;SDS011;51487;52.266;10.542;2022-09-21T08:26:14;11.23;;;5.28;;
64959;SDS011;51487;52.266;10.542;2022-09-21T08:28:46;10.57;;;6.13;;
64959;SDS011;51487;52.266;10.542;2022-09-21T08:31:15;12.50;;;5.73;;
64959;SDS011;51487;52.266;10.542;2022-09-21T08:33:44;13.32;;;6.18;;
64959;SDS011;51487;52.266;10.542;2022-09-21T08:36:11;13.13;;;6.57;;
64959;SDS011;51487;52.266;10.542;2022-09-21T08:38:37;14.05;;;6.47;;
64959;SDS011;51487;52.266;10.542;2022-09-21T08:41:12;9.88;;;6.43;;
64959;SDS011;51487;52.266;10.542;2022-09-21T08:44:02;13.63;;;6.10;;
64959;SDS011;51487;52.266;10.542;2022-09-21T08:46:35;11.55;;;5.00;;
64959;SDS011;51487;52.266;10.542;2022-09-21T08:49:04;7.55;;;4.43;;
64959;SDS011;51487;52.266;10.542;2022-09-21T08:51:40;9.77;;;5.15;;
64959;SDS011;51487;52.266;10.542;2022-09-21T08:54:39;10.63;;;5.57;;
64959;SDS011;51487;52.266;10.542;2022-09-21T08:57:12;10.10;;;5.85;;
64959;SDS011;51487;52.266;10.542;2022-09-21T08:59:43;11.55;;;5.82;;
64959;SDS011;51487;52.266;10.542;2022-09-21T09:05:11;10.18;;;5.50;;
64959;SDS011;51487;52.266;10.542;2022-09-21T09:19:38;8.52;;;4.70;;
64959;SDS011;51487;52.266;10.542;2022-09-21T09:22:18;10.23;;;5.40;;
64959;SDS011;51487;52.266;10.542;2022-09-21T09:24:51;11.13;;;5.22;;
64959;SDS011;51487;52.266;10.542;2022-09-21T09:35:31;6.82;;;3.78;;
64959;SDS011;51487;52.266;10.542;2022-09-21T09:38:32;10.00;;;4.72;;
64959;SDS011;51487;52.266;10.542;2022-09-21T09:50:10;11.82;;;4.07;;
64959;SDS011;51487;52.266;10.542;2022-09-21T09:53:15;10.85;;;4.03;;
64959;SDS011;51487;52.266;10.542;2022-09-21T09:55:45;8.65;;;3.70;;
64959;SDS011;51487;52.266;10.542;2022-09-21T09:58:19;12.45;;;3.45;;
64959;SDS011;51487;52.266;10.542;2022-09-21T10:00:53;8.63;;;3.72;;
64959;SDS011;51487;52.266;10.542;2022-09-21T10:03:21;8.45;;;3.70;;
64959;SDS011;51487;52.266;10.542;2022-09-21T10:05:51;11.70;;;4.30;;
64959;SDS011;51487;52.266;10.542;2022-09-21T10:11:13;7.03;;;3.15;;
64959;SDS011;51487;52.266;10.542;2022-09-21T10:13:41;11.35;;;2.95;;
64959;SDS011;51487;52.266;10.542;2022-09-21T10:16:22;7.93;;;3.03;;
64959;SDS011;51487;52.266;10.542;2022-09-21T10:18:49;10.75;;;2.80;;
64959;SDS011;51487;52.266;10.542;2022-09-21T10:21:23;6.40;;;3.25;;
64959;SDS011;51487;52.266;10.542;2022-09-21T10:23:52;7.07;;;2.55;;
64959;SDS011;51487;52.266;10.542;2022-09-21T10:26:24;12.45;;;3.00;;
64959;SDS011;51487;52.266;10.542;2022-09-21T10:28:59;7.35;;;3.40;;
64959;SDS011;51487;52.266;10.542;2022-09-21T10:31:53;7.88;;;3.00;;
64959;SDS011;51487;52.266;10.542;2022-09-21T10:34:42;7.55;;;2.55;;
64959;SDS011;51487;52.266;10.542;2022-09-21T10:37:37;7.15;;;2.50;;
64959;SDS011;51487;52.266;10.542;2022-09-21T10:40:24;5.82;;;1.95;;
64959;SDS011;51487;52.266;10.542;2022-09-21T10:42:55;7.22;;;2.88;;
64959;SDS011;51487;52.266;10.542;2022-09-21T10:45:25;6.97;;;2.38;;
64959;SDS011;51487;52.266;10.542;2022-09-21T10:48:12;8.85;;;2.58;;
64959;SDS011;51487;52.266;10.542;2022-09-21T10:50:45;10.20;;;2.40;;
64959;SDS011;51487;52.266;10.542;2022-09-21T10:53:29;11.68;;;2.40;;
64959;SDS011;51487;52.266;10.542;2022-09-21T10:58:28;7.75;;;2.40;;
64959;SDS011;51487;52.266;10.542;2022-09-21T11:00:55;8.13;;;2.40;;
64959;SDS011;51487;52.266;10.542;2022-09-21T11:04:05;7.65;;;2.20;;
64959;SDS011;51487;52.266;10.542;2022-09-21T11:06:38;9.50;;;2.20;;
64959;SDS011;51487;52.266;10.542;2022-09-21T11:17:58;4.28;;;1.60;;
64959;SDS011;51487;52.266;10.542;2022-09-21T11:20:47;8.38;;;1.63;;
64959;SDS011;51487;52.266;10.542;2022-09-21T11:24:02;5.55;;;1.60;;
64959;SDS011;51487;52.266;10.542;2022-09-21T11:26:36;6.25;;;1.70;;
64959;SDS011;51487;52.266;10.542;2022-09-21T11:29:11;7.10;;;1.75;;
64959;SDS011;51487;52.266;10.542;2022-09-21T11:31:57;3.42;;;1.50;;
64959;SDS011;51487;52.266;10.542;2022-09-21T11:40:31;5.45;;;1.70;;
64959;SDS011;51487;52.266;10.542;2022-09-21T12:21:57;5.20;;;1.27;;
64959;SDS011;51487;52.266;10.542;2022-09-21T12:24:36;4.95;;;1.23;;
64959;SDS011;51487;52.266;10.542;2022-09-21T12:27:12;6.07;;;2.05;;
64959;SDS011;51487;52.266;10.542;2022-09-21T12:29:49;6.03;;;1.08;;
64959;SDS011;51487;52.266;10.542;2022-09-21T12:35:08;2.47;;;0.95;;
64959;SDS011;51487;52.266;10.542;2022-09-21T12:38:13;1.67;;;0.90;;
64959;SDS011;51487;52.266;10.542;2022-09-21T12:40:59;2.85;;;1.00;;
64959;SDS011;51487;52.266;10.542;2022-09-21T12:43:42;0.98;;;0.90;;
64959;SDS011;51487;52.266;10.542;2022-09-21T12:46:19;1.77;;;1.08;;
64959;SDS011;51487;52.266;10.542;2022-09-21T12:48:52;3.05;;;0.98;;
64959;SDS011;51487;52.266;10.542;2022-09-21T12:51:24;2.50;;;1.13;;
64959;SDS011;51487;52.266;10.542;2022-09-21T12:53:57;4.68;;;1.30;;
64959;SDS011;51487;52.266;10.542;2022-09-21T12:59:24;3.03;;;1.10;;
64959;SDS011;51487;52.266;10.542;2022-09-21T13:02:21;4.40;;;1.38;;
64959;SDS011;51487;52.266;10.542;2022-09-21T13:05:14;3.73;;;0.90;;
64959;SDS011;51487;52.266;10.542;2022-09-21T13:16:13;4.50;;;1.27;;
64959;SDS011;51487;52.266;10.542;2022-09-21T13:19:01;2.78;;;0.85;;
64959;SDS011;51487;52.266;10.542;2022-09-21T13:21:37;4.53;;;1.50;;
64959;SDS011;51487;52.266;10.542;2022-09-21T13:24:05;3.80;;;1.20;;
64959;SDS011;51487;52.266;10.542;2022-09-21T13:26:51;4.50;;;1.38;;
64959;SDS011;51487;52.266;10.542;2022-09-21T13:29:26;5.00;;;1.15;;
64959;SDS011;51487;52.266;10.542;2022-09-21T13:34:33;4.88;;;1.05;;
64959;SDS011;51487;52.266;10.542;2022-09-21T13:44:53;4.00;;;1.25;;
64959;SDS011;51487;52.266;10.542;2022-09-21T13:50:09;3.83;;;1.17;;
64959;SDS011;51487;52.266;10.542;2022-09-21T13:53:03;2.10;;;1.10;;
64959;SDS011;51487;52.266;10.542;2022-09-21T13:55:47;3.17;;;1.17;;
64959;SDS011;51487;52.266;10.542;2022-09-21T14:00:52;1.90;;;0.95;;
64959;SDS011;51487;52.266;10.542;2022-09-21T14:03:30;1.83;;;0.80;;
64959;SDS011;51487;52.266;10.542;2022-09-21T14:06:07;2.30;;;0.88;;
64959;SDS011;51487;52.266;10.542;2022-09-21T14:08:58;2.42;;;0.98;;
64959;SDS011;51487;52.266;10.542;2022-09-21T14:11:29;7.70;;;1.77;;
64959;SDS011;51487;52.266;10.542;2022-09-21T14:17:00;1.48;;;1.00;;
64959;SDS011;51487;52.266;10.542;2022-09-21T14:27:26;3.03;;;1.10;;
64959;SDS011;51487;52.266;10.542;2022-09-21T14:30:00;4.00;;;1.15;;
64959;SDS011;51487;52.266;10.542;2022-09-21T14:32:50;1.90;;;0.90;;
64959;SDS011;51487;52.266;10.542;2022-09-21T14:35:32;4.30;;;1.35;;
64959;SDS011;51487;52.266;10.542;2022-09-21T14:40:55;1.83;;;0.90;;
64959;SDS011;51487;52.266;10.542;2022-09-21T14:43:28;2.50;;;1.13;;
64959;SDS011;51487;52.266;10.542;2022-09-21T14:52:12;3.90;;;1.17;;
64959;SDS011;51487;52.266;10.542;2022-09-21T15:12:39;2.95;;;1.00;;
64959;SDS011;51487;52.266;10.542;2022-09-21T15:17:59;2.33;;;0.90;;
64959;SDS011;51487;52.266;10.542;2022-09-21T15:20:28;3.05;;;1.13;;
64959;SDS011;51487;52.266;10.542;2022-09-21T15:22:56;1.83;;;1.15;;
64959;SDS011;51487;52.266;10.542;2022-09-21T15:25:28;3.03;;;1.30;;
64959;SDS011;51487;52.266;10.542;2022-09-21T15:27:57;4.18;;;1.50;;
64959;SDS011;51487;52.266;10.542;2022-09-21T15:30:24;4.18;;;1.20;;
64959;SDS011;51487;52.266;10.542;2022-09-21T15:32:54;5.78;;;1.10;;
64959;SDS011;51487;52.266;10.542;2022-09-21T15:35:24;2.40;;;1.00;;
64959;SDS011;51487;52.266;10.542;2022-09-21T15:37:53;3.10;;;1.30;;
64959;SDS011;51487;52.266;10.542;2022-09-21T15:40:22;3.60;;;1.17;;
64959;SDS011;51487;52.266;10.542;2022-09-21T15:43:03;2.40;;;0.90;;
64959;SDS011;51487;52.266;10.542;2022-09-21T15:45:55;3.15;;;1.00;;
64959;SDS011;51487;52.266;10.542;2022-09-21T15:48:25;2.30;;;0.98;;
64959;SDS011;51487;52.266;10.542;2022-09-21T15:51:17;2.15;;;0.90;;
64959;SDS011;51487;52.266;10.542;2022-09-21T15:54:06;2.42;;;1.15;;
64959;SDS011;51487;52.266;10.542;2022-09-21T15:56:43;3.22;;;1.15;;
64959;SDS011;51487;52.266;10.542;2022-09-21T15:59:11;2.75;;;0.90;;
64959;SDS011;51487;52.266;10.542;2022-09-21T16:01:45;2.05;;;0.95;;
64959;SDS011;51487;52.266;10.542;2022-09-21T16:04:24;3.85;;;1.00;;
64959;SDS011;51487;52.266;10.542;2022-09-21T16:07:05;3.47;;;1.02;;
64959;SDS011;51487;52.266;10.542;2022-09-21T16:09:48;3.67;;;1.30;;
64959;SDS011;51487;52.266;10.542;2022-09-21T16:15:06;1.80;;;0.95;;
64959;SDS011;51487;52.266;10.542;2022-09-21T16:17:59;4.07;;;1.20;;
64959;SDS011;51487;52.266;10.542;2022-09-21T16:23:21;2.10;;;0.82;;
64959;SDS011;51487;52.266;10.542;2022-09-21T16:25:53;1.60;;;1.00;;
64959;SDS011;51487;52.266;10.542;2022-09-21T16:28:38;2.47;;;1.10;;
64959;SDS011;51487;52.266;10.542;2022-09-21T16:33:56;6.65;;;2.13;;
64959;SDS011;51487;52.266;10.542;2022-09-21T16:38:56;2.67;;;1.10;;
64959;SDS011;51487;52.266;10.542;2022-09-21T16:41:37;2.40;;;1.10;;
64959;SDS011;51487;52.266;10.542;2022-09-21T16:44:15;3.85;;;1.50;;
64959;SDS011;51487;52.266;10.542;2022-09-21T16:46:52;4.45;;;1.30;;
64959;SDS011;51487;52.266;10.542;2022-09-21T16:49:22;7.28;;;1.52;;
64959;SDS011;51487;52.266;10.542;2022-09-21T16:51:51;5.18;;;1.80;;
64959;SDS011;51487;52.266;10.542;2022-09-21T16:54:18;4.32;;;1.65;;
64959;SDS011;51487;52.266;10.542;2022-09-21T16:56:50;5.32;;;1.90;;
64959;SDS011;51487;52.266;10.542;2022-09-21T16:59:18;3.30;;;1.55;;
64959;SDS011;51487;52.266;10.542;2022-09-21T17:01:47;3.95;;;1.60;;
64959;SDS011;51487;52.266;10.542;2022-09-21T17:04:18;3.90;;;1.65;;
64959;SDS011;51487;52.266;10.542;2022-09-21T17:06:46;2.70;;;1.45;;
64959;SDS011;51487;52.266;10.542;2022-09-21T17:09:17;4.10;;;1.45;;
64959;SDS011;51487;52.266;10.542;2022-09-21T17:11:55;5.13;;;1.60;;
64959;SDS011;51487;52.266;10.542;2022-09-21T17:14:25;7.10;;;1.60;;
64959;SDS011;51487;52.266;10.542;2022-09-21T17:16:59;5.40;;;1.60;;
64959;SDS011;51487;52.266;10.542;2022-09-21T17:19:29;4.13;;;1.65;;
64959;SDS011;51487;52.266;10.542;2022-09-21T17:21:56;5.15;;;1.58;;
64959;SDS011;51487;52.266;10.542;2022-09-21T17:24:23;4.40;;;1.70;;
64959;SDS011;51487;52.266;10.542;2022-09-21T17:26:50;8.10;;;1.90;;
64959;SDS011;51487;52.266;10.542;2022-09-21T17:31:51;4.75;;;1.60;;
64959;SDS011;51487;52.266;10.542;2022-09-21T17:34:21;4.47;;;1.80;;
64959;SDS011;51487;52.266;10.542;2022-09-21T17:36:53;4.57;;;1.48;;
64959;SDS011;51487;52.266;10.542;2022-09-21T17:39:19;5.72;;;1.42;;
64959;SDS011;51487;52.266;10.542;2022-09-21T17:41:55;3.25;;;1.80;;
64959;SDS011;51487;52.266;10.542;2022-09-21T17:47:26;7.05;;;1.80;;
64959;SDS011;51487;52.266;10.542;2022-09-21T17:50:16;4.50;;;1.80;;
64959;SDS011;51487;52.266;10.542;2022-09-21T17:52:44;6.53;;;1.65;;
64959;SDS011;51487;52.266;10.542;2022-09-21T17:55:29;7.32;;;1.83;;
64959;SDS011;51487;52.266;10.542;2022-09-21T18:01:03;5.93;;;2.87;;
64959;SDS011;51487;52.266;10.542;2022-09-21T18:03:43;5.82;;;2.40;;
64959;SDS011;51487;52.266;10.542;2022-09-21T18:06:09;4.75;;;2.30;;
64959;SDS011;51487;52.266;10.542;2022-09-21T18:08:36;9.27;;;3.08;;
64959;SDS011;51487;52.266;10.542;2022-09-21T18:26:00;6.50;;;2.85;;
64959;SDS011;51487;52.266;10.542;2022-09-21T18:31:53;4.75;;;2.35;;
64959;SDS011;51487;52.266;10.542;2022-09-21T18:37:30;10.10;;;4.30;;
64959;SDS011;51487;52.266;10.542;2022-09-21T18:42:51;10.55;;;4.50;;
64959;SDS011;51487;52.266;10.542;2022-09-21T18:46:12;10.90;;;4.28;;
64959;SDS011;51487;52.266;10.542;2022-09-21T18:52:27;10.98;;;4.55;;
64959;SDS011;51487;52.266;10.542;2022-09-21T18:54:30;10.18;;;4.32;;
64959;SDS011;51487;52.266;10.542;2022-09-21T18:56:56;8.57;;;3.97;;
64959;SDS011;51487;52.266;10.542;2022-09-21T18:59:23;7.15;;;4.10;;
64959;SDS011;51487;52.266;10.542;2022-09-21T19:01:49;11.55;;;4.40;;
64959;SDS011;51487;52.266;10.542;2022-09-21T19:04:16;9.77;;;3.78;;
64959;SDS011;51487;52.266;10.542;2022-09-21T19:06:49;7.18;;;3.70;;
64959;SDS011;51487;52.266;10.542;2022-09-21T19:15:02;10.13;;;4.03;;
64959;SDS011;51487;52.266;10.542;2022-09-21T19:26:26;6.82;;;3.78;;
64959;SDS011;51487;52.266;10.542;2022-09-21T19:29:18;8.35;;;3.83;;
64959;SDS011;51487;52.266;10.542;2022-09-21T19:31:56;20.70;;;4.55;;
64959;SDS011;51487;52.266;10.542;2022-09-21T19:34:22;8.02;;;4.18;;
64959;SDS011;51487;52.266;10.542;2022-09-21T19:36:47;7.80;;;3.85;;